createdAt,value
2023-04-23T00:01:05.758Z,4.86
2023-04-23T00:03:32.877Z,4.96
2023-04-23T00:05:59.874Z,4.89
2023-04-23T00:08:27.380Z,4.67
2023-04-23T00:10:54.392Z,4.77
2023-04-23T00:13:21.276Z,4.68
2023-04-23T00:15:48.929Z,4.72
2023-04-23T00:18:15.967Z,4.81
2023-04-23T00:20:47.996Z,4.88
2023-04-23T00:23:17.744Z,4.95
2023-04-23T00:25:45.576Z,4.91
2023-04-23T00:28:12.702Z,5.11
2023-04-23T00:30:39.814Z,5.01
2023-04-23T00:33:06.864Z,5.04
2023-04-23T00:35:33.934Z,5.16
2023-04-23T00:38:01.001Z,4.77
2023-04-23T00:40:30.537Z,4.79
2023-04-23T00:42:57.611Z,4.79
2023-04-23T00:45:24.678Z,4.88
2023-04-23T00:47:51.493Z,4.73
2023-04-23T00:50:18.497Z,4.62
2023-04-23T00:52:45.396Z,4.55
2023-04-23T00:55:12.133Z,4.65
2023-04-23T00:57:39.356Z,4.54
2023-04-23T01:00:09.283Z,4.43
2023-04-23T01:02:36.734Z,4.76
2023-04-23T01:05:04.739Z,4.98
2023-04-23T01:07:32.886Z,4.78
2023-04-23T01:10:00.005Z,4.96
2023-04-23T01:12:27.809Z,5.00
2023-04-23T01:14:54.876Z,5.16
2023-04-23T01:17:22.018Z,5.29
2023-04-23T01:19:49.992Z,5.08
2023-04-23T01:22:16.805Z,5.14
2023-04-23T01:24:44.043Z,5.23
2023-04-23T01:27:10.911Z,5.46
2023-04-23T01:29:38.504Z,5.23
2023-04-23T01:32:05.815Z,5.08
2023-04-23T01:34:32.850Z,5.19
2023-04-23T01:37:02.437Z,5.36
2023-04-23T01:39:29.529Z,5.13
2023-04-23T01:41:56.301Z,5.18
2023-04-23T01:44:23.626Z,4.77
2023-04-23T01:46:50.734Z,5.50
2023-04-23T01:49:17.811Z,5.23
2023-04-23T01:51:44.576Z,4.90
2023-04-23T01:54:11.741Z,4.88
2023-04-23T01:56:38.786Z,5.49
2023-04-23T01:59:05.535Z,5.70
2023-04-23T02:01:52.386Z,5.39
2023-04-23T02:04:19.722Z,5.18
2023-04-23T02:06:49.671Z,5.10
2023-04-23T02:09:16.566Z,4.92
2023-04-23T02:11:43.331Z,4.91
2023-04-23T02:14:10.205Z,4.60
2023-04-23T02:16:37.365Z,4.68
2023-04-23T02:19:04.217Z,4.57
2023-04-23T02:21:31.133Z,4.84
2023-04-23T02:23:57.869Z,4.93
2023-04-23T02:26:27.561Z,4.87
2023-04-23T02:28:54.343Z,5.19
2023-04-23T02:31:22.265Z,5.26
2023-04-23T02:33:49.328Z,5.24
2023-04-23T02:36:16.383Z,5.16
2023-04-23T02:38:43.450Z,4.88
2023-04-23T02:41:10.412Z,4.85
2023-04-23T02:43:37.498Z,5.02
2023-04-23T02:46:04.632Z,4.87
2023-04-23T02:48:31.388Z,4.90
2023-04-23T02:50:58.498Z,5.09
2023-04-23T02:53:25.563Z,4.87
2023-04-23T02:55:52.349Z,4.66
2023-04-23T02:58:19.421Z,4.57
2023-04-23T03:00:46.530Z,4.80
2023-04-23T03:03:13.737Z,4.72
2023-04-23T03:05:40.877Z,4.84
2023-04-23T03:08:08.659Z,4.49
2023-04-23T03:10:35.680Z,4.53
2023-04-23T03:13:02.706Z,4.43
2023-04-23T03:15:29.440Z,4.59
2023-04-23T03:17:56.527Z,4.36
2023-04-23T03:20:23.323Z,4.23
2023-04-23T03:22:51.362Z,4.50
2023-04-23T03:25:18.688Z,4.42
2023-04-23T03:27:46.888Z,4.55
2023-04-23T03:30:13.665Z,4.51
2023-04-23T03:32:40.763Z,4.26
2023-04-23T03:35:07.945Z,4.71
2023-04-23T03:37:35.005Z,5.07
2023-04-23T03:40:02.032Z,4.83
2023-04-23T03:42:29.204Z,4.97
2023-04-23T03:44:56.299Z,4.70
2023-04-23T03:47:23.320Z,5.08
2023-04-23T03:49:51.523Z,5.35
2023-04-23T03:52:18.212Z,5.38
2023-04-23T03:54:46.244Z,5.35
2023-04-23T03:57:13.289Z,5.12
2023-04-23T03:59:40.021Z,4.98
2023-04-23T04:02:07.180Z,5.16
2023-04-23T04:04:36.810Z,5.13
2023-04-23T04:07:04.107Z,5.57
2023-04-23T04:09:31.163Z,5.75
2023-04-23T04:11:58.216Z,5.53
2023-04-23T04:14:25.235Z,5.10
2023-04-23T04:16:51.999Z,5.25
2023-04-23T04:19:21.834Z,5.03
2023-04-23T04:21:48.518Z,5.73
2023-04-23T04:24:18.389Z,5.84
2023-04-23T04:26:45.760Z,6.06
2023-04-23T04:29:14.613Z,6.21
2023-04-23T04:31:41.413Z,5.84
2023-04-23T04:34:08.578Z,6.11
2023-04-23T04:36:35.619Z,6.36
2023-04-23T04:39:02.430Z,6.52
2023-04-23T04:41:29.514Z,6.34
2023-04-23T04:43:57.833Z,6.70
2023-04-23T04:46:27.341Z,6.83
2023-04-23T04:48:54.178Z,6.58
2023-04-23T04:51:21.245Z,6.49
2023-04-23T04:53:48.292Z,6.89
2023-04-23T04:56:15.080Z,6.63
2023-04-23T04:58:42.192Z,6.69
2023-04-23T05:01:09.259Z,6.72
2023-04-23T05:03:37.236Z,6.73
2023-04-23T05:06:04.506Z,6.89
2023-04-23T05:08:31.293Z,7.01
2023-04-23T05:10:58.026Z,6.95
2023-04-23T05:13:24.770Z,7.16
2023-04-23T05:15:51.861Z,6.83
2023-04-23T05:18:18.645Z,7.38
2023-04-23T05:20:45.756Z,7.24
2023-04-23T05:23:12.519Z,6.96
2023-04-23T05:25:39.427Z,7.30
2023-04-23T05:28:06.536Z,7.17
2023-04-23T05:30:33.654Z,6.75
2023-04-23T05:33:00.801Z,6.47
2023-04-23T05:35:27.864Z,6.52
2023-04-23T05:37:54.610Z,6.44
2023-04-23T05:40:25.384Z,6.22
2023-04-23T05:42:52.453Z,6.69
2023-04-23T05:45:20.245Z,6.62
2023-04-23T05:47:47.461Z,6.33
2023-04-23T05:50:14.271Z,5.73
2023-04-23T05:52:41.366Z,6.15
2023-04-23T05:55:09.087Z,5.58
2023-04-23T05:57:40.208Z,5.45
2023-04-23T06:00:08.433Z,5.04
2023-04-23T06:02:35.744Z,4.77
2023-04-23T06:05:04.291Z,4.80
2023-04-23T06:07:31.828Z,4.69
2023-04-23T06:09:58.705Z,4.81
2023-04-23T06:12:25.778Z,5.20
2023-04-23T06:14:52.806Z,4.93
2023-04-23T06:17:19.968Z,5.29
2023-04-23T06:19:48.550Z,5.01
2023-04-23T06:22:15.480Z,4.80
2023-04-23T06:24:42.920Z,4.65
2023-04-23T06:27:10.320Z,4.35
2023-04-23T06:29:37.300Z,4.22
2023-04-23T06:32:04.390Z,4.22
2023-04-23T06:34:34.151Z,3.93
2023-04-23T06:37:01.184Z,4.16
2023-04-23T06:39:28.331Z,4.11
2023-04-23T06:41:55.145Z,4.47
2023-04-23T06:44:22.189Z,4.59
2023-04-23T06:46:48.953Z,4.51
2023-04-23T06:49:15.833Z,4.93
2023-04-23T06:51:42.864Z,5.00
2023-04-23T06:54:09.959Z,4.40
2023-04-23T06:56:37.019Z,4.57
2023-04-23T06:59:03.766Z,4.87
2023-04-23T07:01:31.426Z,4.83
2023-04-23T07:03:58.574Z,4.93
2023-04-23T07:06:25.548Z,4.96
2023-04-23T07:08:52.624Z,4.76
2023-04-23T07:11:22.098Z,4.75
2023-04-23T07:13:48.953Z,4.87
2023-04-23T07:16:16.165Z,5.21
2023-04-23T07:18:43.306Z,5.25
2023-04-23T07:21:10.373Z,5.31
2023-04-23T07:23:38.358Z,5.57
2023-04-23T07:26:07.815Z,5.83
2023-04-23T07:28:34.909Z,5.26
2023-04-23T07:31:02.289Z,5.80
2023-04-23T07:33:28.982Z,5.99
2023-04-23T07:35:55.697Z,6.20
2023-04-23T07:38:24.021Z,6.34
2023-04-23T07:40:53.534Z,6.81
2023-04-23T07:43:20.632Z,7.13
2023-04-23T07:45:47.819Z,7.30
2023-04-23T07:48:15.169Z,6.98
2023-04-23T07:50:42.804Z,7.16
2023-04-23T07:53:09.904Z,7.05
2023-04-23T07:55:36.955Z,6.78
2023-04-23T07:58:04.194Z,6.54
2023-04-23T08:00:31.275Z,6.00
2023-04-23T08:02:58.947Z,5.09
2023-04-23T08:05:26.068Z,3.95
2023-04-23T08:07:52.968Z,3.80
2023-04-23T08:10:20.326Z,4.23
2023-04-23T08:12:47.288Z,4.09
2023-04-23T08:15:14.451Z,3.71
2023-04-23T08:17:41.173Z,3.60
2023-04-23T08:20:10.951Z,4.23
2023-04-23T08:22:39.506Z,4.37
2023-04-23T08:25:06.602Z,4.30
2023-04-23T08:27:33.296Z,4.31
2023-04-23T08:30:03.021Z,4.08
2023-04-23T08:32:30.810Z,4.11
2023-04-23T08:34:57.809Z,4.01
2023-04-23T08:37:31.420Z,4.08
2023-04-23T08:40:01.379Z,5.50
2023-04-23T08:42:45.939Z,5.49
2023-04-23T08:45:15.550Z,5.36
2023-04-23T08:47:45.254Z,5.08
2023-04-23T08:50:12.875Z,4.99
2023-04-23T08:52:42.218Z,4.80
2023-04-23T08:55:10.055Z,4.79
2023-04-23T08:57:40.750Z,4.84
2023-04-23T09:00:10.198Z,4.40
2023-04-23T09:02:41.114Z,4.00
2023-04-23T09:05:08.166Z,3.76
2023-04-23T09:07:35.729Z,3.15
2023-04-23T09:10:18.663Z,3.31
2023-04-23T09:12:51.283Z,3.63
2023-04-23T09:15:17.982Z,3.36
2023-04-23T09:17:46.716Z,3.36
2023-04-23T09:20:13.858Z,3.54
2023-04-23T09:22:54.822Z,2.97
2023-04-23T09:25:24.857Z,3.21
2023-04-23T09:27:52.049Z,3.18
2023-04-23T09:30:19.067Z,3.20
2023-04-23T09:32:51.573Z,3.52
2023-04-23T09:35:18.482Z,3.13
2023-04-23T09:37:51.429Z,3.00
2023-04-23T09:40:19.935Z,3.28
2023-04-23T09:42:50.473Z,3.40
2023-04-23T09:45:17.454Z,3.25
2023-04-23T09:47:54.635Z,3.18
2023-04-23T09:50:34.760Z,3.45
2023-04-23T09:53:01.845Z,3.66
2023-04-23T09:55:38.027Z,3.53
2023-04-23T09:58:05.428Z,3.94
2023-04-23T10:00:38.842Z,3.65
2023-04-23T10:03:06.466Z,3.95
2023-04-23T10:05:49.865Z,4.19
2023-04-23T10:08:20.442Z,3.81
2023-04-23T10:11:00.133Z,4.03
2023-04-23T10:13:36.048Z,3.70
2023-04-23T10:16:18.187Z,3.65
2023-04-23T10:18:49.641Z,3.51
2023-04-23T10:21:16.726Z,3.39
2023-04-23T10:23:44.169Z,3.40
2023-04-23T10:26:12.009Z,3.39
2023-04-23T10:28:39.114Z,3.26
2023-04-23T10:31:05.971Z,3.28
2023-04-23T10:33:39.879Z,3.29
2023-04-23T10:36:17.770Z,3.18
2023-04-23T10:38:56.870Z,3.20
2023-04-23T10:41:24.862Z,3.58
2023-04-23T10:43:53.633Z,3.31
2023-04-23T10:46:31.048Z,3.30
2023-04-23T10:49:14.450Z,3.20
2023-04-23T10:54:11.347Z,3.36
2023-04-23T10:56:39.142Z,3.26
2023-04-23T10:59:07.498Z,3.29
2023-04-23T11:01:37.270Z,3.26
2023-04-23T11:04:37.578Z,3.31
2023-04-23T11:07:08.217Z,3.04
2023-04-23T11:09:44.444Z,3.00
2023-04-23T11:12:25.884Z,3.25
2023-04-23T11:14:53.017Z,3.11
2023-04-23T11:17:22.966Z,3.23
2023-04-23T11:20:08.888Z,3.00
2023-04-23T11:22:39.510Z,2.96
2023-04-23T11:25:13.312Z,2.96
2023-04-23T11:27:43.418Z,2.85
2023-04-23T11:30:16.861Z,2.93
2023-04-23T11:32:48.849Z,2.96
2023-04-23T11:35:17.185Z,2.67
2023-04-23T11:37:44.466Z,2.75
2023-04-23T11:40:13.215Z,2.83
2023-04-23T11:42:53.757Z,2.76
2023-04-23T11:45:21.312Z,2.62
2023-04-23T11:47:49.726Z,2.64
2023-04-23T11:50:24.413Z,2.50
2023-04-23T11:52:51.132Z,2.74
2023-04-23T11:55:17.805Z,2.89
2023-04-23T11:57:48.115Z,2.72
2023-04-23T12:00:21.622Z,2.64
2023-04-23T12:02:51.829Z,2.47
2023-04-23T12:05:28.960Z,2.67
2023-04-23T12:08:05.936Z,2.56
2023-04-23T12:10:33.322Z,2.47
2023-04-23T12:13:00.168Z,2.63
2023-04-23T12:15:27.169Z,2.44
2023-04-23T12:18:09.134Z,2.47
2023-04-23T12:20:35.898Z,2.44
2023-04-23T12:23:05.734Z,2.60
2023-04-23T12:25:35.962Z,2.47
2023-04-23T12:28:04.729Z,2.47
2023-04-23T12:30:35.458Z,2.64
2023-04-23T12:33:03.077Z,2.59
2023-04-23T12:35:38.621Z,2.34
2023-04-23T12:38:05.923Z,2.55
2023-04-23T12:40:33.533Z,2.68
2023-04-23T12:43:00.727Z,2.38
2023-04-23T12:45:27.491Z,2.43
2023-04-23T12:47:54.259Z,2.41
2023-04-23T12:50:21.124Z,2.47
2023-04-23T12:52:48.276Z,2.51
2023-04-23T12:55:15.192Z,2.30
2023-04-23T12:57:41.986Z,2.37
2023-04-23T13:00:09.050Z,2.35
2023-04-23T13:02:36.488Z,2.31
2023-04-23T13:05:04.292Z,2.28
2023-04-23T13:07:31.517Z,2.20
2023-04-23T13:09:58.757Z,2.21
2023-04-23T13:12:26.186Z,2.53
2023-04-23T13:14:53.381Z,2.31
2023-04-23T13:17:20.437Z,2.30
2023-04-23T13:19:47.209Z,2.38
2023-04-23T13:22:14.075Z,2.26
2023-04-23T13:24:40.840Z,2.39
2023-04-23T13:27:08.829Z,2.25
2023-04-23T13:29:35.613Z,2.06
2023-04-23T13:32:02.932Z,2.35
2023-04-23T13:34:29.936Z,2.34
2023-04-23T13:36:57.449Z,2.22
2023-04-23T13:39:24.496Z,2.31
2023-04-23T13:42:06.241Z,2.07
2023-04-23T13:44:36.388Z,2.21
2023-04-23T13:47:03.290Z,2.30
2023-04-23T13:49:30.737Z,2.17
2023-04-23T13:51:57.470Z,2.75
2023-04-23T13:54:24.345Z,2.51
2023-04-23T13:56:51.013Z,2.20
2023-04-23T13:59:20.399Z,2.12
2023-04-23T14:01:48.966Z,2.44
2023-04-23T14:04:16.006Z,2.32
2023-04-23T14:06:43.031Z,2.66
2023-04-23T14:09:10.495Z,2.43
2023-04-23T14:11:37.353Z,2.49
2023-04-23T14:14:04.215Z,2.42
2023-04-23T14:16:31.104Z,2.41
2023-04-23T14:18:57.967Z,2.26
2023-04-23T14:21:25.123Z,1.94
2023-04-23T14:23:56.563Z,1.77
2023-04-23T14:26:47.350Z,1.81
2023-04-23T14:29:20.213Z,1.62
2023-04-23T14:31:49.384Z,1.65
2023-04-23T14:34:17.151Z,1.75
2023-04-23T14:36:44.191Z,1.73
2023-04-23T14:39:11.141Z,1.60
2023-04-23T14:41:37.918Z,1.65
2023-04-23T14:44:04.872Z,1.51
2023-04-23T14:46:32.169Z,1.65
2023-04-23T14:48:59.245Z,1.76
2023-04-23T14:51:26.392Z,1.85
2023-04-23T14:53:54.712Z,1.83
2023-04-23T14:56:24.286Z,1.68
2023-04-23T14:58:51.048Z,1.79
2023-04-23T15:01:18.340Z,2.05
2023-04-23T15:03:45.398Z,1.89
2023-04-23T15:06:13.286Z,1.99
2023-04-23T15:08:49.512Z,2.35
2023-04-23T15:11:16.286Z,2.20
2023-04-23T15:13:51.084Z,2.41
2023-04-23T15:16:51.969Z,2.06
2023-04-23T15:19:18.765Z,2.07
2023-04-23T15:21:46.684Z,1.79
2023-04-23T15:24:13.730Z,1.79
2023-04-23T15:26:40.814Z,1.72
2023-04-23T15:29:08.723Z,1.74
2023-04-23T15:31:36.629Z,1.69
2023-04-23T15:34:03.419Z,1.88
2023-04-23T15:36:32.790Z,1.79
2023-04-23T15:38:59.578Z,1.74
2023-04-23T15:41:26.711Z,1.81
2023-04-23T15:43:53.878Z,1.68
2023-04-23T15:46:21.019Z,1.57
2023-04-23T15:49:05.599Z,1.45
2023-04-23T15:51:32.630Z,1.63
2023-04-23T15:54:07.694Z,1.08
2023-04-23T15:56:34.865Z,1.25
2023-04-23T15:59:02.261Z,1.27
2023-04-23T16:01:29.838Z,0.91
2023-04-23T16:06:26.744Z,0.96
2023-04-23T16:08:53.532Z,1.19
2023-04-23T16:11:20.571Z,1.08
2023-04-23T16:13:47.264Z,1.07
2023-04-23T16:16:14.108Z,1.00
2023-04-23T16:18:41.894Z,1.59
2023-04-23T16:21:13.791Z,1.79
2023-04-23T16:23:41.292Z,1.49
2023-04-23T16:26:09.661Z,1.73
2023-04-23T16:28:52.136Z,1.90
2023-04-23T16:31:26.321Z,1.79
2023-04-23T16:33:53.259Z,2.04
2023-04-23T16:36:25.984Z,1.89
2023-04-23T16:38:52.678Z,2.05
2023-04-23T16:41:26.926Z,1.57
2023-04-23T16:43:53.714Z,1.33
2023-04-23T16:46:21.325Z,1.53
2023-04-23T16:48:48.216Z,1.62
2023-04-23T16:51:15.800Z,1.56
2023-04-23T16:53:45.398Z,1.85
2023-04-23T16:56:12.332Z,1.52
2023-04-23T16:58:40.282Z,1.70
2023-04-23T17:01:07.029Z,1.62
2023-04-23T17:03:33.970Z,1.88
2023-04-23T17:06:11.766Z,2.34
2023-04-23T17:08:38.780Z,1.70
2023-04-23T17:11:05.654Z,2.16
2023-04-23T17:13:35.301Z,1.94
2023-04-23T17:16:02.807Z,1.59
2023-04-23T17:18:29.906Z,1.21
2023-04-23T17:20:57.261Z,1.32
2023-04-23T17:23:27.066Z,1.07
2023-04-23T17:25:54.094Z,1.00
2023-04-23T17:28:23.865Z,0.98
2023-04-23T17:31:04.036Z,1.19
2023-04-23T17:33:34.131Z,1.18
2023-04-23T17:36:00.833Z,1.31
2023-04-23T17:38:28.553Z,1.70
2023-04-23T17:41:07.932Z,1.83
2023-04-23T17:47:18.787Z,2.45
2023-04-23T17:49:45.611Z,2.06
2023-04-23T17:52:12.841Z,4.31
2023-04-23T17:54:39.703Z,3.07
2023-04-23T17:57:08.349Z,2.11
2023-04-23T17:59:35.574Z,2.19
2023-04-23T18:02:03.461Z,2.25
2023-04-23T18:04:30.487Z,1.75
2023-04-23T18:06:57.660Z,1.78
2023-04-23T18:09:24.485Z,1.67
2023-04-23T18:11:51.559Z,1.63
2023-04-23T18:14:18.637Z,1.78
2023-04-23T18:16:45.402Z,1.95
2023-04-23T18:19:12.506Z,1.92
2023-04-23T18:21:39.820Z,1.91
2023-04-23T18:24:09.308Z,1.70
2023-04-23T18:26:36.061Z,1.64
2023-04-23T18:29:03.046Z,1.47
2023-04-23T18:31:30.272Z,1.60
2023-04-23T18:34:01.298Z,1.81
2023-04-23T18:36:37.677Z,1.75
2023-04-23T18:39:07.530Z,1.47
2023-04-23T18:41:37.346Z,1.50
2023-04-23T18:44:04.391Z,1.51
2023-04-23T18:46:31.682Z,1.61
2023-04-23T18:49:34.696Z,1.84
2023-04-23T18:52:01.440Z,1.68
2023-04-23T18:54:28.490Z,1.59
2023-04-23T18:56:55.209Z,1.64
2023-04-23T18:59:22.350Z,2.17
2023-04-23T19:01:49.161Z,2.09
2023-04-23T19:04:16.573Z,2.32
2023-04-23T19:06:43.848Z,2.06
2023-04-23T19:09:10.869Z,1.58
2023-04-23T19:11:38.670Z,1.60
2023-04-23T19:14:10.718Z,1.91
2023-04-23T19:16:37.521Z,1.65
2023-04-23T19:19:04.648Z,1.54
2023-04-23T19:21:32.030Z,1.62
2023-04-23T19:24:04.201Z,1.49
2023-04-23T19:26:30.938Z,1.60
2023-04-23T19:28:57.813Z,1.56
2023-04-23T19:31:24.646Z,1.67
2023-04-23T19:33:51.461Z,1.59
2023-04-23T19:36:18.229Z,1.70
2023-04-23T19:38:44.925Z,1.80
2023-04-23T19:41:11.665Z,1.72
2023-04-23T19:44:13.599Z,1.74
2023-04-23T19:46:40.673Z,1.81
2023-04-23T19:49:08.234Z,1.69
2023-04-23T19:51:35.019Z,1.49
2023-04-23T19:54:02.306Z,1.62
2023-04-23T19:56:30.528Z,1.48
2023-04-23T19:58:57.215Z,1.59
2023-04-23T20:01:24.337Z,1.62
2023-04-23T20:03:51.191Z,1.73
2023-04-23T20:06:37.256Z,1.75
2023-04-23T20:09:05.163Z,1.87
2023-04-23T20:11:36.004Z,1.68
2023-04-23T20:14:17.010Z,1.76
2023-04-23T20:16:43.915Z,1.66
2023-04-23T20:19:11.145Z,1.68
2023-04-23T20:21:38.566Z,1.75
2023-04-23T20:24:13.152Z,1.52
2023-04-23T20:26:40.897Z,1.77
2023-04-23T20:29:07.755Z,1.56
2023-04-23T20:31:34.579Z,1.53
2023-04-23T20:34:01.303Z,1.56
2023-04-23T20:36:28.061Z,1.68
2023-04-23T20:39:03.911Z,1.47
2023-04-23T20:41:31.760Z,1.44
2023-04-23T20:43:59.880Z,1.34
2023-04-23T20:46:28.183Z,1.38
2023-04-23T20:48:54.941Z,1.36
2023-04-23T20:51:22.865Z,1.39
2023-04-23T20:53:50.056Z,1.41
2023-04-23T20:56:18.040Z,1.37
2023-04-23T20:58:44.705Z,1.28
2023-04-23T21:01:11.837Z,1.31
2023-04-23T21:03:40.310Z,1.35
2023-04-23T21:06:08.325Z,1.41
2023-04-23T21:08:35.533Z,1.45
2023-04-23T21:11:02.200Z,1.41
2023-04-23T21:13:30.114Z,1.35
2023-04-23T21:15:56.974Z,1.14
2023-04-23T21:18:30.589Z,1.26
2023-04-23T21:20:57.312Z,1.31
2023-04-23T21:23:24.082Z,1.34
2023-04-23T21:25:51.008Z,1.28
2023-04-23T21:28:19.264Z,1.13
2023-04-23T21:30:52.787Z,1.20
2023-04-23T21:33:20.385Z,1.23
2023-04-23T21:35:47.462Z,1.12
2023-04-23T21:38:26.668Z,1.10
2023-04-23T21:40:53.381Z,0.98
2023-04-23T21:47:15.071Z,1.02
2023-04-23T21:49:43.074Z,1.06
2023-04-23T21:52:11.714Z,1.05
2023-04-23T21:54:41.334Z,1.01
2023-04-23T21:57:08.052Z,0.89
2023-04-23T21:59:35.573Z,1.02
2023-04-23T22:02:02.307Z,1.06
2023-04-23T22:04:29.467Z,0.83
2023-04-23T22:06:58.137Z,0.93
2023-04-23T22:09:26.058Z,0.96
2023-04-23T22:12:01.944Z,0.96
2023-04-23T22:14:29.445Z,1.09
2023-04-23T22:16:56.774Z,0.81
2023-04-23T22:19:23.521Z,0.79
2023-04-23T22:22:04.332Z,0.79
2023-04-23T22:24:31.441Z,0.73
2023-04-23T22:26:58.472Z,0.74
2023-04-23T22:29:25.483Z,0.55
2023-04-23T22:31:52.812Z,0.59
2023-04-23T22:34:19.687Z,0.45
2023-04-23T22:36:46.715Z,0.49
2023-04-23T22:39:13.778Z,0.53
2023-04-23T22:41:40.985Z,0.56
2023-04-23T22:44:10.552Z,0.48
2023-04-23T22:46:37.601Z,0.50
2023-04-23T22:49:04.794Z,0.41
2023-04-23T22:51:31.872Z,0.30
2023-04-23T22:53:58.889Z,0.28
2023-04-23T22:56:28.531Z,0.25
2023-04-23T23:02:49.668Z,0.20
2023-04-23T23:05:16.822Z,0.20
2023-04-23T23:07:44.776Z,0.27
2023-04-23T23:10:12.553Z,0.24
2023-04-23T23:12:39.580Z,0.20
2023-04-23T23:15:07.563Z,0.31
2023-04-23T23:17:34.656Z,0.34
2023-04-23T23:20:04.911Z,0.35
2023-04-23T23:22:32.105Z,0.28
2023-04-23T23:24:59.524Z,0.28
2023-04-23T23:27:26.489Z,0.28
2023-04-23T23:29:53.642Z,0.50
2023-04-23T23:32:20.801Z,0.48
2023-04-23T23:34:50.468Z,0.47
2023-04-23T23:37:17.533Z,0.53
2023-04-23T23:39:45.019Z,0.54
2023-04-23T23:42:11.773Z,0.48
2023-04-23T23:44:38.813Z,0.59
2023-04-23T23:47:05.738Z,0.46
2023-04-23T23:49:32.605Z,0.43
2023-04-23T23:52:02.172Z,0.30
2023-04-23T23:54:29.245Z,0.29
2023-04-23T23:56:55.971Z,0.44
2023-04-23T23:59:23.236Z,0.21
